Time;durP1;ratioP1;P1;durP2;ratioP2;P2;SDS_P1;SDS_P2;PMS_P1;PMS_P2;Temp;Humidity;BMP_temperature;BMP_pressure;BME280_temperature;BME280_humidity;BME280_pressure;Samples;Min_cycle;Max_cycle;Signal;HPM_P1;HPM_P2
2023/09/28 00:01:22;;;;;;;12.17;9.83;;;16.80;99.90;;;;;;5002426;28;20941;-50
2023/09/28 00:03:48;;;;;;;12.57;10.43;;;16.80;99.90;;;;;;5004328;28;20811;-49
2023/09/28 00:06:14;;;;;;;11.83;10.63;;;16.80;98.80;;;;;;5003941;28;20488;-49
2023/09/28 00:08:39;;;;;;;11.70;10.60;;;16.80;1.00;;;;;;4999376;28;20443;-49
2023/09/28 00:11:05;;;;;;;13.33;9.83;;;16.80;99.90;;;;;;4999355;28;20189;-49
2023/09/28 00:13:31;;;;;;;13.30;10.90;;;16.80;1.00;;;;;;5001880;28;20191;-49
2023/09/28 00:15:57;;;;;;;11.27;9.17;;;16.80;99.90;;;;;;5006202;28;20204;-49
2023/09/28 00:18:25;;;;;;;12.97;9.87;;;16.80;1.00;;;;;;4999348;28;20222;-50
2023/09/28 00:20:51;;;;;;;12.53;10.30;;;16.80;99.90;;;;;;5009680;28;20799;-51
2023/09/28 00:23:17;;;;;;;13.00;10.73;;;16.80;99.90;;;;;;4998695;28;20496;-49
2023/09/28 00:25:43;;;;;;;12.37;10.83;;;16.80;99.90;;;;;;5002841;28;20561;-48
2023/09/28 00:28:09;;;;;;;11.50;10.20;;;16.70;1.00;;;;;;4998294;28;20197;-50
2023/09/28 00:30:35;;;;;;;11.67;9.87;;;16.70;20.90;;;;;;5004570;28;20460;-49
2023/09/28 00:33:01;;;;;;;11.30;10.10;;;16.70;22.50;;;;;;4998805;28;20282;-49
2023/09/28 00:35:27;;;;;;;16.40;11.10;;;16.70;1.00;;;;;;4998029;28;20205;-49
2023/09/28 00:37:52;;;;;;;11.70;10.50;;;16.70;1.00;;;;;;5000682;28;20446;-49
2023/09/28 00:40:20;;;;;;;12.53;9.87;;;16.70;1.00;;;;;;4996779;28;20188;-49
2023/09/28 00:42:50;;;;;;;11.63;10.37;;;16.80;1.00;;;;;;4997063;28;20939;-49
2023/09/28 00:45:16;;;;;;;12.70;10.43;;;16.80;99.90;;;;;;5001847;28;20441;-49
2023/09/28 00:47:43;;;;;;;12.63;10.17;;;16.80;1.00;;;;;;4997508;28;20480;-49
2023/09/28 00:50:11;;;;;;;12.17;10.40;;;16.80;99.90;;;;;;4999057;28;20443;-49
2023/09/28 00:52:38;;;;;;;15.63;10.93;;;16.70;1.00;;;;;;5001377;28;20457;-49
2023/09/28 00:55:05;;;;;;;12.10;10.03;;;16.80;99.90;;;;;;5000929;28;20437;-49
2023/09/28 00:57:33;;;;;;;12.00;10.67;;;16.80;4.00;;;;;;4997620;28;20450;-49
2023/09/28 01:00:00;;;;;;;14.40;11.47;;;16.90;1.00;;;;;;5000697;28;20437;-49
2023/09/28 01:02:26;;;;;;;14.47;11.30;;;16.80;99.90;;;;;;5003209;28;20444;-48
2023/09/28 01:04:52;;;;;;;12.30;11.07;;;16.80;1.00;;;;;;5001810;28;20845;-48
2023/09/28 01:07:28;;;;;;;12.80;11.13;;;16.70;99.90;;;;;;5002830;28;20217;-50
2023/09/28 01:09:54;;;;;;;16.43;11.60;;;16.70;99.90;;;;;;4997174;28;20202;-48
2023/09/28 01:12:20;;;;;;;13.30;10.40;;;16.70;1.00;;;;;;4999737;28;20447;-50
2023/09/28 01:14:48;;;;;;;14.80;11.03;;;16.60;1.00;;;;;;5000232;28;20432;-49
2023/09/28 01:17:13;;;;;;;12.03;10.83;;;16.60;1.00;;;;;;4997115;28;20603;-49
2023/09/28 01:19:39;;;;;;;13.30;10.93;;;16.70;1.00;;;;;;4997643;28;20509;-51
2023/09/28 01:22:15;;;;;;;15.00;10.53;;;16.70;99.90;;;;;;4997089;28;20278;-50
2023/09/28 01:24:41;;;;;;;16.83;12.00;;;16.70;1.00;;;;;;4996504;28;20218;-49
2023/09/28 01:27:06;;;;;;;13.97;11.90;;;16.70;1.00;;;;;;4997228;28;20490;-49
2023/09/28 01:29:32;;;;;;;11.80;10.57;;;16.70;26.30;;;;;;5001444;28;20669;-49
2023/09/28 01:31:58;;;;;;;18.33;11.90;;;16.60;1.00;;;;;;4996678;28;20657;-48
2023/09/28 01:34:23;;;;;;;11.17;10.10;;;16.50;99.90;;;;;;4999287;28;20561;-49
2023/09/28 01:36:49;;;;;;;11.47;10.27;;;16.50;1.00;;;;;;4997470;28;20239;-49
2023/09/28 01:39:15;;;;;;;13.80;11.33;;;16.50;69.90;;;;;;5002783;28;20275;-49
2023/09/28 01:41:42;;;;;;;16.33;12.27;;;16.50;10.10;;;;;;5003009;28;20516;-50
2023/09/28 01:44:07;;;;;;;14.70;11.70;;;16.50;99.90;;;;;;5007000;28;20788;-49
2023/09/28 01:46:34;;;;;;;13.13;10.90;;;16.50;1.00;;;;;;5003915;28;20483;-49
2023/09/28 01:48:59;;;;;;;12.80;11.37;;;16.50;99.90;;;;;;5001226;28;20195;-49
2023/09/28 01:51:25;;;;;;;12.33;11.00;;;16.60;99.90;;;;;;5001592;28;20800;-50
2023/09/28 01:53:50;;;;;;;12.40;11.10;;;16.60;24.30;;;;;;4998366;28;20190;-49
2023/09/28 01:56:18;;;;;;;11.37;10.20;;;16.70;99.90;;;;;;5000635;28;20188;-49
2023/09/28 01:58:44;;;;;;;13.17;10.67;;;16.70;1.00;;;;;;4997242;28;20232;-49
2023/09/28 02:01:19;;;;;;;11.73;10.50;;;16.90;99.90;;;;;;4997317;28;20444;-49
2023/09/28 02:03:45;;;;;;;13.03;10.00;;;16.90;17.10;;;;;;5001511;28;20653;-50
2023/09/28 02:06:11;;;;;;;13.50;11.57;;;16.80;50.40;;;;;;4999387;28;20583;-50
2023/09/28 02:08:36;;;;;;;13.20;10.40;;;16.70;93.60;;;;;;4997389;28;20444;-49
2023/09/28 02:11:03;;;;;;;15.40;11.87;;;16.70;1.00;;;;;;5001213;28;20193;-49
2023/09/28 02:13:28;;;;;;;11.13;10.03;;;16.70;99.90;;;;;;4998139;28;20254;-49
2023/09/28 02:15:54;;;;;;;13.77;11.07;;;16.60;1.00;;;;;;5003729;28;20479;-49
2023/09/28 02:18:19;;;;;;;18.30;11.87;;;16.60;99.90;;;;;;5005118;28;20220;-49
2023/09/28 02:20:45;;;;;;;17.00;14.40;;;16.60;99.90;;;;;;5008713;28;20189;-49
2023/09/28 02:23:10;;;;;;;17.10;12.90;;;16.50;1.00;;;;;;5005372;28;20717;-50
2023/09/28 02:25:36;;;;;;;19.17;13.43;;;16.40;99.90;;;;;;5007373;28;20672;-50
2023/09/28 02:28:02;;;;;;;17.63;13.27;;;16.30;99.90;;;;;;5004913;28;20288;-49
2023/09/28 02:30:27;;;;;;;15.20;12.33;;;16.30;1.00;;;;;;5006267;28;20199;-48
2023/09/28 02:32:55;;;;;;;15.83;14.10;;;16.30;99.90;;;;;;5007099;28;20187;-49
2023/09/28 02:35:21;;;;;;;16.70;12.70;;;16.30;1.00;;;;;;5000188;28;20201;-49
2023/09/28 02:37:48;;;;;;;14.80;12.83;;;16.30;99.90;;;;;;5006492;28;20439;-49
2023/09/28 02:40:15;;;;;;;14.03;12.60;;;16.30;99.90;;;;;;5003865;28;20685;-51
2023/09/28 02:42:42;;;;;;;13.83;11.53;;;16.40;1.00;;;;;;5004586;28;20789;-49
2023/09/28 02:45:11;;;;;;;14.17;12.70;;;16.40;99.90;;;;;;5003859;28;20451;-49
2023/09/28 02:47:41;;;;;;;13.07;11.70;;;16.50;1.00;;;;;;5003379;28;20565;-49
2023/09/28 02:50:11;;;;;;;15.40;12.23;;;16.60;65.40;;;;;;5003882;28;20484;-49
2023/09/28 02:52:39;;;;;;;14.80;12.20;;;16.60;1.00;;;;;;5005709;28;20471;-49
2023/09/28 02:55:07;;;;;;;15.70;13.47;;;16.50;99.90;;;;;;5001785;28;21029;-49
2023/09/28 02:57:33;;;;;;;17.10;12.00;;;16.40;1.00;;;;;;5007245;28;20940;-48
2023/09/28 02:59:59;;;;;;;15.70;12.50;;;16.40;4.10;;;;;;5003483;28;20439;-49
2023/09/28 03:02:25;;;;;;;17.57;13.00;;;16.40;99.90;;;;;;5005522;28;20457;-51
2023/09/28 03:04:50;;;;;;;17.47;13.97;;;16.50;1.00;;;;;;5005805;28;20846;-50
2023/09/28 03:07:17;;;;;;;13.90;12.50;;;16.40;99.90;;;;;;5005099;28;20227;-50
2023/09/28 03:09:42;;;;;;;16.03;12.80;;;16.30;1.00;;;;;;5003488;28;20215;-49
2023/09/28 03:12:08;;;;;;;16.03;13.13;;;16.30;1.00;;;;;;4999611;28;20530;-49
2023/09/28 03:14:34;;;;;;;14.47;11.77;;;16.40;99.90;;;;;;5002882;28;20181;-48
2023/09/28 03:17:00;;;;;;;14.10;12.37;;;16.40;99.90;;;;;;5003304;28;20193;-50
2023/09/28 03:19:25;;;;;;;12.60;11.30;;;16.40;21.00;;;;;;5003991;28;20443;-49
2023/09/28 03:21:51;;;;;;;14.03;12.30;;;16.50;1.00;;;;;;5002152;28;20189;-52
2023/09/28 03:24:16;;;;;;;15.17;12.30;;;16.50;1.00;;;;;;5001122;28;20317;-49
2023/09/28 03:26:42;;;;;;;19.57;14.10;;;16.50;99.90;;;;;;5000896;28;20227;-48
2023/09/28 03:29:08;;;;;;;15.40;13.20;;;16.40;99.90;;;;;;5001157;28;20189;-50
2023/09/28 03:31:34;;;;;;;16.60;13.70;;;16.40;99.90;;;;;;5005033;28;20268;-50
2023/09/28 03:33:59;;;;;;;14.50;13.00;;;16.30;99.90;;;;;;5003086;28;20194;-49
2023/09/28 03:36:29;;;;;;;17.07;14.00;;;16.30;93.50;;;;;;5002642;28;20472;-48
2023/09/28 03:38:55;;;;;;;14.63;11.77;;;16.30;20.30;;;;;;5007060;28;20345;-49
2023/09/28 03:41:21;;;;;;;14.93;12.00;;;16.30;99.90;;;;;;5006175;28;20582;-49
2023/09/28 03:43:48;;;;;;;13.10;11.80;;;16.40;99.90;;;;;;5006616;28;20202;-48
2023/09/28 03:46:18;;;;;;;15.23;13.67;;;16.40;99.90;;;;;;4999805;28;20229;-49
2023/09/28 03:48:45;;;;;;;12.17;10.97;;;16.40;1.00;;;;;;5004585;28;20473;-49
2023/09/28 03:51:11;;;;;;;13.63;11.80;;;16.40;58.70;;;;;;4998155;28;20438;-49
2023/09/28 03:53:39;;;;;;;14.80;12.40;;;16.40;1.00;;;;;;5001750;28;20439;-51
2023/09/28 03:56:05;;;;;;;21.30;13.50;;;16.40;1.00;;;;;;5001798;28;20478;-48
2023/09/28 03:58:30;;;;;;;16.63;12.23;;;16.40;99.90;;;;;;5000318;28;20447;-50
2023/09/28 04:00:57;;;;;;;13.67;11.60;;;16.40;11.20;;;;;;5004784;28;20194;-49
2023/09/28 04:03:23;;;;;;;15.27;13.00;;;16.30;1.00;;;;;;4999375;28;20548;-49
2023/09/28 04:05:49;;;;;;;20.23;14.03;;;16.30;99.90;;;;;;5002383;28;20452;-49
2023/09/28 04:08:15;;;;;;;14.17;12.67;;;16.30;1.00;;;;;;4998893;28;20449;-50
2023/09/28 04:10:41;;;;;;;15.10;12.10;;;16.30;1.00;;;;;;5002291;28;20242;-50
2023/09/28 04:13:07;;;;;;;14.57;12.30;;;16.30;1.00;;;;;;5000619;28;20537;-50
2023/09/28 04:15:33;;;;;;;16.80;14.37;;;16.30;1.00;;;;;;5000990;28;20438;-50
2023/09/28 04:17:59;;;;;;;17.30;13.97;;;16.30;1.00;;;;;;5012280;28;20434;-49
2023/09/28 04:20:24;;;;;;;15.80;12.80;;;16.30;99.90;;;;;;5002747;28;20287;-49
2023/09/28 04:22:50;;;;;;;17.37;12.00;;;16.20;1.00;;;;;;5004305;28;20571;-49
2023/09/28 04:25:19;;;;;;;20.17;13.07;;;16.20;99.90;;;;;;5004226;28;20279;-49
2023/09/28 04:27:45;;;;;;;16.40;13.63;;;16.30;1.00;;;;;;4997982;28;20292;-49
2023/09/28 04:30:11;;;;;;;16.53;13.50;;;16.30;1.00;;;;;;5001788;28;20533;-48
2023/09/28 04:32:36;;;;;;;16.83;13.43;;;16.20;1.00;;;;;;5000115;28;20197;-50
2023/09/28 04:35:06;;;;;;;16.23;14.50;;;16.20;99.90;;;;;;5006232;28;20441;-49
2023/09/28 04:37:32;;;;;;;15.73;13.63;;;16.20;99.90;;;;;;4999066;28;20189;-48
2023/09/28 04:39:57;;;;;;;15.87;13.67;;;16.20;1.00;;;;;;5003408;28;20453;-47
2023/09/28 04:42:23;;;;;;;12.70;11.17;;;16.20;1.00;;;;;;5000637;28;20466;-50
2023/09/28 04:44:49;;;;;;;18.50;15.27;;;16.20;1.00;;;;;;5000343;28;20180;-48
2023/09/28 04:47:15;;;;;;;17.10;13.77;;;16.20;80.70;;;;;;5000856;28;20221;-49
2023/09/28 04:49:41;;;;;;;18.80;14.37;;;16.20;99.90;;;;;;4999426;28;20182;-48
2023/09/28 04:52:07;;;;;;;15.10;12.70;;;16.20;1.00;;;;;;5005825;28;20190;-50
2023/09/28 04:54:33;;;;;;;16.73;12.93;;;16.30;1.00;;;;;;4999477;28;21196;-49
2023/09/28 04:56:59;;;;;;;15.80;13.77;;;16.40;1.00;;;;;;5001465;28;21021;-49
2023/09/28 04:59:24;;;;;;;15.63;12.93;;;16.40;99.90;;;;;;4998663;28;20533;-48
2023/09/28 05:01:50;;;;;;;17.57;12.77;;;16.40;1.00;;;;;;5000278;28;20231;-47
2023/09/28 05:04:16;;;;;;;15.93;13.60;;;16.40;99.90;;;;;;5001184;28;20201;-49
2023/09/28 05:06:42;;;;;;;17.40;13.13;;;16.40;99.10;;;;;;5001174;28;20206;-50
2023/09/28 05:09:08;;;;;;;15.23;12.17;;;16.40;99.90;;;;;;5004500;28;20497;-50
2023/09/28 05:11:34;;;;;;;12.50;11.20;;;16.50;99.90;;;;;;5001459;28;20441;-49
2023/09/28 05:14:00;;;;;;;14.13;12.27;;;16.60;99.90;;;;;;5003834;28;20809;-49
2023/09/28 05:16:26;;;;;;;15.10;13.50;;;16.60;1.00;;;;;;4999530;28;21568;-50
2023/09/28 05:18:51;;;;;;;16.20;12.63;;;16.60;1.00;;;;;;5003005;28;20184;-49
2023/09/28 05:21:17;;;;;;;17.40;13.17;;;16.70;1.00;;;;;;4999337;28;20595;-49
2023/09/28 05:23:43;;;;;;;16.10;12.57;;;16.70;99.90;;;;;;5000766;28;24316;-49
2023/09/28 05:26:08;;;;;;;18.87;12.77;;;16.70;1.00;;;;;;4998799;28;20226;-49
2023/09/28 05:28:35;;;;;;;16.10;13.17;;;16.70;1.00;;;;;;5002269;28;20305;-49
2023/09/28 05:31:00;;;;;;;14.63;12.07;;;16.70;99.90;;;;;;5001553;28;20536;-49
2023/09/28 05:33:26;;;;;;;15.33;12.43;;;16.70;1.00;;;;;;5005999;28;20309;-49
2023/09/28 05:35:52;;;;;;;16.37;13.57;;;16.60;1.00;;;;;;5003354;28;20189;-50
2023/09/28 05:38:17;;;;;;;16.30;12.80;;;16.60;1.00;;;;;;5004767;28;20456;-49
2023/09/28 05:40:43;;;;;;;14.70;13.07;;;16.60;1.00;;;;;;4999618;28;20197;-48
2023/09/28 05:43:08;;;;;;;15.57;12.80;;;16.60;1.00;;;;;;5001899;28;20185;-48
2023/09/28 05:45:34;;;;;;;15.60;13.43;;;16.60;1.00;;;;;;4999804;28;20180;-49
2023/09/28 05:48:01;;;;;;;17.43;13.30;;;16.60;1.00;;;;;;5006088;28;20238;-48
2023/09/28 05:50:26;;;;;;;16.70;13.33;;;16.60;99.90;;;;;;4999461;28;20208;-49
2023/09/28 05:52:55;;;;;;;20.57;13.60;;;16.60;1.00;;;;;;4998463;28;20435;-48
2023/09/28 05:55:22;;;;;;;20.97;13.20;;;16.60;1.00;;;;;;4999475;28;21901;-48
2023/09/28 05:57:47;;;;;;;17.33;13.20;;;16.60;1.00;;;;;;5001364;28;20456;-49
2023/09/28 06:00:15;;;;;;;15.27;12.70;;;16.60;1.00;;;;;;5001772;28;20528;-50
2023/09/28 06:02:41;;;;;;;20.03;11.53;;;16.70;1.00;;;;;;5000523;28;20669;-48
2023/09/28 06:05:08;;;;;;;19.00;14.30;;;16.80;99.90;;;;;;5002513;28;20468;-49
2023/09/28 06:07:34;;;;;;;17.80;13.20;;;16.80;83.00;;;;;;5000810;28;20228;-48
2023/09/28 06:09:59;;;;;;;17.57;14.27;;;16.90;82.80;;;;;;5001822;28;20460;-50
2023/09/28 06:12:25;;;;;;;20.97;12.80;;;16.90;1.00;;;;;;4998128;28;23329;-48
2023/09/28 06:14:50;;;;;;;17.50;14.37;;;16.90;1.00;;;;;;5004073;28;20528;-49
2023/09/28 06:17:17;;;;;;;15.90;13.50;;;17.00;1.00;;;;;;5003909;28;20216;-49
2023/09/28 06:19:42;;;;;;;16.67;13.03;;;17.00;1.00;;;;;;5002860;28;20196;-49
2023/09/28 06:22:09;;;;;;;15.30;12.20;;;17.00;1.00;;;;;;5006204;28;20448;-48
2023/09/28 06:24:37;;;;;;;19.27;13.00;;;17.10;1.00;;;;;;5002396;28;20247;-48
2023/09/28 06:27:03;;;;;;;17.90;13.30;;;17.20;1.00;;;;;;4998204;28;20984;-49
2023/09/28 06:29:31;;;;;;;25.73;14.73;;;17.30;1.00;;;;;;5001404;28;20450;-49
2023/09/28 06:31:56;;;;;;;17.40;13.07;;;17.30;99.90;;;;;;5004016;28;20269;-49
2023/09/28 06:34:22;;;;;;;21.80;13.67;;;17.30;99.90;;;;;;4999360;28;20497;-49
2023/09/28 06:36:47;;;;;;;15.90;12.13;;;17.40;99.90;;;;;;4995752;28;20191;-49
2023/09/28 06:39:13;;;;;;;22.20;14.20;;;17.40;99.90;;;;;;4999697;28;20275;-48
2023/09/28 06:41:38;;;;;;;16.23;12.40;;;17.40;99.90;;;;;;5000962;28;20195;-48
2023/09/28 06:44:04;;;;;;;22.30;13.17;;;17.50;99.90;;;;;;5001062;28;20203;-49
2023/09/28 06:46:30;;;;;;;14.90;12.80;;;17.50;66.00;;;;;;5001157;28;20261;-49
2023/09/28 06:48:55;;;;;;;16.10;12.30;;;17.60;1.00;;;;;;5002245;28;20547;-49
2023/09/28 06:51:22;;;;;;;15.43;11.17;;;17.60;1.00;;;;;;4998895;28;20196;-49
2023/09/28 06:53:47;;;;;;;17.47;11.17;;;17.70;1.00;;;;;;5007895;28;20193;-49
2023/09/28 06:56:13;;;;;;;18.70;10.87;;;17.80;1.00;;;;;;4998477;28;20487;-48
2023/09/28 06:58:39;;;;;;;12.50;10.50;;;17.80;1.00;;;;;;4999390;28;20670;-48
2023/09/28 07:01:05;;;;;;;12.60;9.83;;;18.00;1.00;;;;;;5000677;28;20643;-48
2023/09/28 07:03:33;;;;;;;12.43;9.90;;;18.10;99.90;;;;;;5002287;28;20199;-49
2023/09/28 07:05:58;;;;;;;12.20;9.13;;;18.20;99.90;;;;;;5005037;28;20286;-50
2023/09/28 07:08:24;;;;;;;11.30;8.97;;;18.30;99.90;;;;;;5007892;28;20530;-48
2023/09/28 07:10:50;;;;;;;10.83;9.07;;;18.50;99.90;;;;;;5006559;28;20788;-48
2023/09/28 07:13:16;;;;;;;10.43;8.87;;;18.60;99.90;;;;;;4999613;28;20482;-48
2023/09/28 07:15:41;;;;;;;10.30;8.67;;;18.90;99.90;;;;;;5000321;28;20218;-49
2023/09/28 07:18:07;;;;;;;9.07;8.00;;;19.10;90.10;;;;;;5000065;28;20191;-48
2023/09/28 07:20:32;;;;;;;10.73;8.57;;;19.30;59.10;;;;;;5000033;28;20263;-49
2023/09/28 07:22:58;;;;;;;21.90;8.43;;;19.50;11.30;;;;;;5002713;28;20697;-49
2023/09/28 07:25:27;;;;;;;9.47;8.07;;;19.60;1.00;;;;;;5000490;28;20198;-51
2023/09/28 07:27:53;;;;;;;11.30;8.20;;;19.50;1.00;;;;;;5002265;28;20221;-49
2023/09/28 07:30:20;;;;;;;14.80;8.50;;;19.40;1.00;;;;;;4999067;28;20438;-49
2023/09/28 07:32:49;;;;;;;12.00;8.70;;;19.30;1.00;;;;;;5002358;28;20431;-49
2023/09/28 07:35:16;;;;;;;12.90;8.10;;;19.50;1.00;;;;;;5006722;28;20443;-49
2023/09/28 07:37:43;;;;;;;13.03;8.83;;;19.50;1.00;;;;;;5006281;28;20529;-49
2023/09/28 07:40:13;;;;;;;10.70;8.27;;;19.40;1.00;;;;;;5002952;28;20526;-48
2023/09/28 07:42:41;;;;;;;9.83;8.83;;;19.40;1.00;;;;;;4998618;28;20800;-48
2023/09/28 07:45:07;;;;;;;12.93;9.23;;;19.80;1.00;;;;;;4998532;28;20841;-48
2023/09/28 07:47:33;;;;;;;10.90;8.03;;;20.00;1.00;;;;;;5001736;28;20986;-49
2023/09/28 07:49:59;;;;;;;8.80;7.77;;;20.20;1.00;;;;;;5004185;28;20452;-49
2023/09/28 07:52:25;;;;;;;13.53;8.83;;;20.30;1.00;;;;;;4999009;28;20444;-49
2023/09/28 07:54:50;;;;;;;11.33;8.07;;;20.50;1.00;;;;;;4998439;28;21133;-49
2023/09/28 07:57:17;;;;;;;9.20;7.73;;;21.20;1.00;;;;;;5000397;28;20515;-49
2023/09/28 07:59:43;;;;;;;8.97;7.43;;;22.00;1.00;;;;;;5011911;28;20186;-49
2023/09/28 08:02:09;;;;;;;11.90;7.47;;;22.90;1.00;;;;;;5012771;28;20423;-48
2023/09/28 08:04:36;;;;;;;12.07;7.67;;;23.40;1.00;;;;;;4999379;28;20192;-49
2023/09/28 08:07:03;;;;;;;10.07;7.33;;;23.60;1.00;;;;;;4998930;28;20476;-48
2023/09/28 08:09:28;;;;;;;8.23;7.40;;;23.80;1.00;;;;;;4998303;28;20491;-49
2023/09/28 08:11:55;;;;;;;9.07;6.20;;;23.90;1.00;;;;;;4998735;28;20468;-49
2023/09/28 08:14:21;;;;;;;11.83;7.10;;;24.20;1.00;;;;;;4998354;28;20200;-49
2023/09/28 08:16:48;;;;;;;8.90;7.20;;;24.60;1.00;;;;;;5002601;28;20653;-48
2023/09/28 08:19:14;;;;;;;10.83;7.17;;;24.90;1.00;;;;;;5002777;28;20439;-49
2023/09/28 08:21:40;;;;;;;8.27;6.90;;;25.00;1.00;;;;;;5003571;28;20444;-49
2023/09/28 08:24:07;;;;;;;10.90;7.00;;;25.00;1.00;;;;;;5000639;28;20236;-50
2023/09/28 08:26:34;;;;;;;12.73;6.90;;;25.20;1.00;;;;;;4997541;28;20467;-47
2023/09/28 08:29:00;;;;;;;9.00;6.40;;;25.40;1.00;;;;;;5000544;28;20439;-48
2023/09/28 08:31:27;;;;;;;11.63;6.60;;;25.70;1.00;;;;;;5001658;28;20948;-48
2023/09/28 08:33:53;;;;;;;8.40;6.73;;;25.90;1.00;;;;;;4998426;28;20443;-48
2023/09/28 08:36:19;;;;;;;9.83;6.50;;;26.10;1.00;;;;;;5000021;28;20443;-48
2023/09/28 08:38:46;;;;;;;9.03;6.27;;;26.00;1.00;;;;;;4997496;28;22354;-48
2023/09/28 08:41:14;;;;;;;16.90;7.00;;;25.60;1.00;;;;;;4998113;28;20258;-48
2023/09/28 08:43:46;;;;;;;9.70;6.70;;;25.70;1.00;;;;;;4997557;28;20446;-48
2023/09/28 08:46:14;;;;;;;10.93;6.43;;;25.80;1.00;;;;;;5002235;28;20483;-48
2023/09/28 08:48:45;;;;;;;10.30;6.70;;;26.00;1.00;;;;;;4998554;28;20464;-49
2023/09/28 08:51:12;;;;;;;11.33;6.83;;;25.80;1.00;;;;;;4998260;28;20443;-48
2023/09/28 08:53:38;;;;;;;8.43;6.53;;;25.50;1.00;;;;;;4997921;28;20476;-47
2023/09/28 08:56:05;;;;;;;8.60;7.13;;;25.00;1.00;;;;;;4997481;28;20452;-48
2023/09/28 08:58:37;;;;;;;10.73;7.20;;;24.50;1.00;;;;;;4997606;28;20442;-48
2023/09/28 09:01:04;;;;;;;7.00;6.30;;;24.10;1.00;;;;;;5003315;28;20447;-48
2023/09/28 09:03:32;;;;;;;10.67;6.60;;;23.80;1.00;;;;;;5003643;28;20922;-48
2023/09/28 09:05:58;;;;;;;11.70;6.63;;;23.60;1.00;;;;;;4998212;28;20774;-47
2023/09/28 09:08:27;;;;;;;12.50;7.33;;;23.30;1.00;;;;;;5003340;28;20455;-48
2023/09/28 09:10:55;;;;;;;7.53;6.53;;;23.10;1.00;;;;;;4997998;28;20224;-48
2023/09/28 09:13:21;;;;;;;7.57;6.73;;;23.00;1.00;;;;;;4997468;28;20847;-50
2023/09/28 09:15:47;;;;;;;13.67;7.63;;;22.80;1.00;;;;;;4998029;28;20502;-49
2023/09/28 09:18:19;;;;;;;10.03;7.10;;;22.70;1.00;;;;;;5005807;28;20777;-49
2023/09/28 09:20:46;;;;;;;9.30;7.07;;;22.50;1.00;;;;;;5001214;28;20440;-50
2023/09/28 09:23:13;;;;;;;13.97;7.80;;;22.50;1.00;;;;;;4999478;28;20486;-50
2023/09/28 09:25:56;;;;;;;9.90;7.03;;;22.50;1.00;;;;;;5000056;28;20850;-50
2023/09/28 09:28:29;;;;;;;8.97;7.07;;;22.40;1.00;;;;;;5004848;28;20460;-50
2023/09/28 09:30:55;;;;;;;11.17;6.63;;;22.30;1.00;;;;;;5010565;28;20447;-50
2023/09/28 09:33:22;;;;;;;9.73;6.63;;;22.40;1.00;;;;;;4999991;28;20924;-50
2023/09/28 09:35:49;;;;;;;10.90;7.07;;;22.40;1.00;;;;;;4993882;28;20947;-50
2023/09/28 09:38:15;;;;;;;13.57;6.97;;;22.40;1.00;;;;;;4995147;28;20490;-50
2023/09/28 09:40:40;;;;;;;16.63;6.70;;;22.40;1.00;;;;;;5005023;28;20451;-49
2023/09/28 09:43:07;;;;;;;11.57;6.80;;;22.50;1.00;;;;;;5000815;28;20201;-50
2023/09/28 09:45:37;;;;;;;15.70;7.63;;;22.60;1.00;;;;;;4999611;28;20216;-50
2023/09/28 09:48:05;;;;;;;9.70;6.97;;;22.60;1.00;;;;;;5000822;28;20817;-50
2023/09/28 09:50:32;;;;;;;13.60;6.47;;;22.60;1.00;;;;;;4996612;28;20438;-50
2023/09/28 09:53:00;;;;;;;13.43;6.23;;;22.70;1.00;;;;;;5004636;28;20449;-50
2023/09/28 09:55:26;;;;;;;9.47;5.73;;;22.80;1.00;;;;;;5005852;28;20439;-50
2023/09/28 09:57:55;;;;;;;11.50;6.03;;;22.80;1.00;;;;;;5001705;28;20428;-50
2023/09/28 10:00:23;;;;;;;10.00;6.40;;;22.80;1.00;;;;;;5000565;28;20475;-50
2023/09/28 10:02:53;;;;;;;6.20;5.30;;;22.80;1.00;;;;;;5004487;28;20493;-50
2023/09/28 10:05:22;;;;;;;10.63;5.17;;;22.90;1.00;;;;;;5002303;28;20454;-49
2023/09/28 10:07:48;;;;;;;10.30;5.30;;;22.90;1.00;;;;;;4996916;28;20794;-49
2023/09/28 10:10:15;;;;;;;12.20;5.73;;;23.00;1.00;;;;;;4998705;28;20447;-50
2023/09/28 10:12:41;;;;;;;7.20;5.03;;;23.10;1.00;;;;;;4996879;28;20451;-49
2023/09/28 10:15:07;;;;;;;10.93;5.03;;;23.30;1.00;;;;;;4996325;28;20809;-50
2023/09/28 10:17:33;;;;;;;11.40;5.43;;;23.60;1.00;;;;;;4996463;28;20215;-49
2023/09/28 10:20:00;;;;;;;11.57;5.00;;;23.80;1.00;;;;;;4996718;28;20902;-50
2023/09/28 10:22:26;;;;;;;6.63;5.10;;;23.80;1.00;;;;;;5002119;28;20765;-49
2023/09/28 10:24:51;;;;;;;9.80;5.10;;;24.00;1.00;;;;;;4996811;28;20446;-50
2023/09/28 10:27:17;;;;;;;10.70;4.20;;;24.40;1.00;;;;;;4996635;28;20622;-49
2023/09/28 10:29:43;;;;;;;7.63;4.37;;;24.80;1.00;;;;;;4997348;28;20189;-47
2023/09/28 10:32:28;;;;;;;13.60;5.30;;;25.30;1.00;;;;;;5005798;28;20624;-48
2023/09/28 10:35:24;;;;;;;8.40;5.00;;;26.00;1.00;;;;;;4997212;28;20278;-47
2023/09/28 10:38:21;;;;;;;7.40;4.60;;;26.90;1.00;;;;;;5005095;28;20529;-48
2023/09/28 10:41:00;;;;;;;5.17;4.03;;;27.40;1.00;;;;;;5003949;28;20530;-48
2023/09/28 10:43:42;;;;;;;8.50;4.60;;;27.50;1.00;;;;;;4999486;28;20443;-48
2023/09/28 10:46:08;;;;;;;6.20;4.40;;;27.40;1.00;;;;;;5000709;28;20444;-48
2023/09/28 10:48:42;;;;;;;12.77;4.53;;;27.60;1.00;;;;;;5000054;28;20445;-49
2023/09/28 10:51:18;;;;;;;6.67;4.40;;;28.00;1.00;;;;;;5006002;28;20184;-49
2023/09/28 10:53:44;;;;;;;8.10;4.87;;;28.40;1.00;;;;;;5005190;28;20922;-48
2023/09/28 10:56:11;;;;;;;14.53;5.27;;;28.10;1.00;;;;;;5000105;28;20475;-48
2023/09/28 10:58:38;;;;;;;7.50;4.63;;;28.20;1.00;;;;;;5007303;28;20449;-47
2023/09/28 11:01:06;;;;;;;11.90;4.90;;;28.00;1.00;;;;;;5000355;28;20506;-48
2023/09/28 11:03:35;;;;;;;12.07;4.60;;;27.50;1.00;;;;;;5000231;28;20558;-48
2023/09/28 11:06:02;;;;;;;8.80;5.53;;;27.80;1.00;;;;;;5000099;28;20983;-47
2023/09/28 11:08:28;;;;;;;6.73;4.53;;;28.10;1.00;;;;;;5000779;28;20856;-48
2023/09/28 11:10:58;;;;;;;12.23;5.30;;;28.60;1.00;;;;;;4999845;28;20466;-48
2023/09/28 11:13:24;;;;;;;7.17;4.90;;;29.10;1.00;;;;;;4999421;28;20443;-48
2023/09/28 11:15:50;;;;;;;9.33;5.37;;;29.40;1.00;;;;;;5004574;28;20463;-48
2023/09/28 11:18:18;;;;;;;7.00;5.30;;;28.90;1.00;;;;;;5004755;28;20494;-47
2023/09/28 11:20:43;;;;;;;9.97;5.93;;;27.90;1.00;;;;;;5002399;28;20189;-47
2023/09/28 11:23:11;;;;;;;6.43;5.67;;;27.40;1.00;;;;;;5010014;28;20502;-47
2023/09/28 11:25:38;;;;;;;6.77;5.20;;;27.00;1.00;;;;;;4999477;28;20203;-49
2023/09/28 11:28:05;;;;;;;8.40;5.50;;;26.70;1.00;;;;;;5001212;28;20847;-48
2023/09/28 11:30:31;;;;;;;7.70;5.50;;;26.70;1.00;;;;;;4998872;28;20535;-48
2023/09/28 11:32:57;;;;;;;9.30;5.93;;;26.90;1.00;;;;;;4999058;28;20850;-49
2023/09/28 11:35:24;;;;;;;9.47;6.10;;;26.90;1.00;;;;;;4999015;28;20184;-48
2023/09/28 11:37:53;;;;;;;12.13;5.33;;;27.00;1.00;;;;;;4998602;28;20444;-47
2023/09/28 11:40:20;;;;;;;8.70;5.30;;;27.10;1.00;;;;;;4998505;28;20940;-47
2023/09/28 11:42:48;;;;;;;8.37;5.27;;;27.10;1.00;;;;;;4998979;28;20475;-48
2023/09/28 11:45:14;;;;;;;9.77;4.20;;;27.30;1.00;;;;;;4998607;28;20504;-48
2023/09/28 11:47:40;;;;;;;12.23;4.60;;;27.30;1.00;;;;;;4997757;28;21047;-48
2023/09/28 11:50:09;;;;;;;9.73;4.80;;;27.30;1.00;;;;;;5001689;28;20295;-47
2023/09/28 11:52:38;;;;;;;5.83;4.67;;;27.30;1.00;;;;;;5001271;28;20189;-48
2023/09/28 11:55:05;;;;;;;13.70;5.13;;;27.00;1.00;;;;;;5001181;28;21022;-48
2023/09/28 11:57:35;;;;;;;6.93;4.37;;;26.60;1.00;;;;;;5002249;28;20497;-47
2023/09/28 12:00:01;;;;;;;10.47;4.57;;;26.40;1.00;;;;;;4998419;28;20474;-49
2023/09/28 12:02:28;;;;;;;8.30;3.90;;;26.10;1.00;;;;;;5003737;28;20487;-48
2023/09/28 12:04:54;;;;;;;5.33;4.07;;;25.80;1.00;;;;;;4999061;28;20548;-48
2023/09/28 12:07:19;;;;;;;11.43;4.23;;;26.40;1.00;;;;;;4998383;28;20484;-48
2023/09/28 12:09:45;;;;;;;13.70;4.27;;;27.40;1.00;;;;;;4999949;28;20221;-48
2023/09/28 12:12:11;;;;;;;12.00;4.23;;;28.10;1.00;;;;;;5001514;28;20196;-48
2023/09/28 12:14:37;;;;;;;8.00;4.20;;;28.50;1.00;;;;;;4998222;28;20180;-48
2023/09/28 12:17:03;;;;;;;10.27;4.40;;;28.40;1.00;;;;;;5002046;28;20188;-48
2023/09/28 12:19:31;;;;;;;11.20;4.63;;;28.40;1.00;;;;;;4998335;28;20184;-48
2023/09/28 12:21:58;;;;;;;7.27;4.20;;;28.40;1.00;;;;;;5001402;28;20439;-48
2023/09/28 12:24:25;;;;;;;8.23;4.30;;;28.70;1.00;;;;;;4998316;28;20534;-48
2023/09/28 12:26:52;;;;;;;8.70;5.13;;;29.10;1.00;;;;;;4999490;28;20480;-48
2023/09/28 12:29:18;;;;;;;10.20;4.90;;;28.90;1.00;;;;;;5004960;28;20446;-47
2023/09/28 12:31:44;;;;;;;8.97;4.03;;;28.30;99.90;;;;;;5005047;28;20799;-47
2023/09/28 12:34:13;;;;;;;13.40;5.03;;;27.80;99.90;;;;;;5005385;28;20188;-47
2023/09/28 12:36:39;;;;;;;10.17;4.30;;;27.60;1.00;;;;;;5002039;28;20447;-47
2023/09/28 12:39:05;;;;;;;11.80;6.00;;;27.80;1.00;;;;;;4999788;28;20442;-48